sensor_id;sensor_type;location;lat;lon;timestamp;pressure;altitude;pressure_sealevel;temperature;humidity
64460;BME280;50828;53.756;21.140;2023-03-20T00:03:01;99816.20;;;6.84;58.54
64460;BME280;50828;53.756;21.140;2023-03-20T00:08:09;99811.05;;;6.79;58.36
64460;BME280;50828;53.756;21.140;2023-03-20T00:13:23;99808.31;;;6.78;58.24
64460;BME280;50828;53.756;21.140;2023-03-20T00:18:32;99806.33;;;6.80;58.21
64460;BME280;50828;53.756;21.140;2023-03-20T00:23:41;99801.38;;;6.82;58.22
64460;BME280;50828;53.756;21.140;2023-03-20T00:28:49;99798.66;;;6.85;58.41
64460;BME280;50828;53.756;21.140;2023-03-20T00:33:58;99794.09;;;6.85;58.15
64460;BME280;50828;53.756;21.140;2023-03-20T00:39:06;99787.88;;;6.88;58.40
64460;BME280;50828;53.756;21.140;2023-03-20T00:44:20;99787.10;;;6.90;58.05
64460;BME280;50828;53.756;21.140;2023-03-20T00:49:32;99783.55;;;6.92;58.23
64460;BME280;50828;53.756;21.140;2023-03-20T00:54:39;99779.69;;;6.92;58.19
64460;BME280;50828;53.756;21.140;2023-03-20T00:59:53;99772.77;;;6.89;58.10
64460;BME280;50828;53.756;21.140;2023-03-20T01:05:02;99776.23;;;6.91;58.17
64460;BME280;50828;53.756;21.140;2023-03-20T01:10:11;99768.10;;;6.88;58.19
64460;BME280;50828;53.756;21.140;2023-03-20T01:15:22;99768.34;;;6.86;58.20
64460;BME280;50828;53.756;21.140;2023-03-20T01:20:31;99774.39;;;6.82;58.22
64460;BME280;50828;53.756;21.140;2023-03-20T01:25:40;99767.23;;;6.76;58.25
64460;BME280;50828;53.756;21.140;2023-03-20T01:30:48;99768.45;;;6.71;58.23
64460;BME280;50828;53.756;21.140;2023-03-20T01:35:57;99768.88;;;6.62;58.39
64460;BME280;50828;53.756;21.140;2023-03-20T01:41:08;99763.19;;;6.53;58.28
64460;BME280;50828;53.756;21.140;2023-03-20T01:46:21;99762.91;;;6.44;58.40
64460;BME280;50828;53.756;21.140;2023-03-20T01:51:31;99756.95;;;6.33;58.71
64460;BME280;50828;53.756;21.140;2023-03-20T01:56:48;99754.41;;;6.23;58.95
64460;BME280;50828;53.756;21.140;2023-03-20T02:01:57;99757.65;;;6.14;58.97
64460;BME280;50828;53.756;21.140;2023-03-20T02:07:06;99760.14;;;6.06;58.89
64460;BME280;50828;53.756;21.140;2023-03-20T02:12:18;99757.56;;;5.97;59.11
64460;BME280;50828;53.756;21.140;2023-03-20T02:17:27;99758.38;;;5.92;58.92
64460;BME280;50828;53.756;21.140;2023-03-20T02:40:03;99738.23;;;5.74;59.55
64460;BME280;50828;53.756;21.140;2023-03-20T02:45:18;99736.89;;;5.72;59.60
64460;BME280;50828;53.756;21.140;2023-03-20T02:50:37;99734.70;;;5.69;59.43
64460;BME280;50828;53.756;21.140;2023-03-20T02:55:56;99725.75;;;5.63;59.45
64460;BME280;50828;53.756;21.140;2023-03-20T03:01:12;99720.15;;;5.57;59.21
64460;BME280;50828;53.756;21.140;2023-03-20T03:06:23;99718.57;;;5.51;58.91
64460;BME280;50828;53.756;21.140;2023-03-20T03:11:37;99717.23;;;5.42;58.96
64460;BME280;50828;53.756;21.140;2023-03-20T03:16:49;99706.98;;;5.32;58.94
64460;BME280;50828;53.756;21.140;2023-03-20T03:21:58;99707.55;;;5.23;58.89
64460;BME280;50828;53.756;21.140;2023-03-20T03:27:09;99711.46;;;5.13;59.12
64460;BME280;50828;53.756;21.140;2023-03-20T03:32:27;99710.33;;;5.02;59.16
64460;BME280;50828;53.756;21.140;2023-03-20T03:37:41;99707.81;;;4.90;59.29
64460;BME280;50828;53.756;21.140;2023-03-20T03:42:56;99706.88;;;4.79;59.25
64460;BME280;50828;53.756;21.140;2023-03-20T03:48:11;99701.92;;;4.66;59.32
64460;BME280;50828;53.756;21.140;2023-03-20T03:53:26;99699.56;;;4.54;59.40
64460;BME280;50828;53.756;21.140;2023-03-20T03:58:38;99693.76;;;4.41;59.58
64460;BME280;50828;53.756;21.140;2023-03-20T04:03:50;99693.25;;;4.32;59.86
64460;BME280;50828;53.756;21.140;2023-03-20T04:08:58;99691.00;;;4.23;60.13
64460;BME280;50828;53.756;21.140;2023-03-20T04:14:06;99680.87;;;4.16;60.11
64460;BME280;50828;53.756;21.140;2023-03-20T04:19:13;99677.46;;;4.12;60.26
64460;BME280;50828;53.756;21.140;2023-03-20T04:24:23;99670.58;;;4.08;60.39
64460;BME280;50828;53.756;21.140;2023-03-20T04:29:31;99680.40;;;4.04;60.54
64460;BME280;50828;53.756;21.140;2023-03-20T04:34:55;99683.75;;;4.03;60.76
64460;BME280;50828;53.756;21.140;2023-03-20T04:40:21;99682.19;;;4.02;61.04
64460;BME280;50828;53.756;21.140;2023-03-20T04:45:29;99679.05;;;4.02;61.02
64460;BME280;50828;53.756;21.140;2023-03-20T04:50:37;99676.45;;;4.02;61.04
64460;BME280;50828;53.756;21.140;2023-03-20T04:55:45;99678.34;;;4.03;61.20
64460;BME280;50828;53.756;21.140;2023-03-20T05:00:53;99682.30;;;4.04;61.25
64460;BME280;50828;53.756;21.140;2023-03-20T05:06:01;99684.02;;;4.07;61.45
64460;BME280;50828;53.756;21.140;2023-03-20T05:11:09;99686.91;;;4.10;61.63
64460;BME280;50828;53.756;21.140;2023-03-20T05:16:37;99690.69;;;4.13;61.89
64460;BME280;50828;53.756;21.140;2023-03-20T05:22:04;99682.92;;;4.17;62.13
64460;BME280;50828;53.756;21.140;2023-03-20T05:27:43;99676.73;;;4.22;62.26
64460;BME280;50828;53.756;21.140;2023-03-20T05:33:08;99678.15;;;4.29;62.33
64460;BME280;50828;53.756;21.140;2023-03-20T05:38:45;99677.66;;;4.35;62.40
64460;BME280;50828;53.756;21.140;2023-03-20T05:43:59;99675.77;;;4.43;62.39
64460;BME280;50828;53.756;21.140;2023-03-20T05:49:21;99672.48;;;4.49;62.52
64460;BME280;50828;53.756;21.140;2023-03-20T05:54:51;99673.16;;;4.58;62.63
64460;BME280;50828;53.756;21.140;2023-03-20T06:00:22;99668.63;;;4.66;62.59
64460;BME280;50828;53.756;21.140;2023-03-20T06:05:50;99667.70;;;4.75;62.72
64460;BME280;50828;53.756;21.140;2023-03-20T06:10:58;99663.84;;;4.84;62.72
64460;BME280;50828;53.756;21.140;2023-03-20T06:16:08;99658.96;;;4.90;62.77
64460;BME280;50828;53.756;21.140;2023-03-20T06:21:17;99655.30;;;4.91;62.76
64460;BME280;50828;53.756;21.140;2023-03-20T06:26:24;99667.61;;;5.08;62.83
64460;BME280;50828;53.756;21.140;2023-03-20T06:31:39;99664.30;;;5.22;62.80
64460;BME280;50828;53.756;21.140;2023-03-20T06:36:50;99670.41;;;5.35;62.80
64460;BME280;50828;53.756;21.140;2023-03-20T06:42:00;99670.55;;;5.50;62.81
64460;BME280;50828;53.756;21.140;2023-03-20T06:47:08;99668.77;;;5.65;62.76
64460;BME280;50828;53.756;21.140;2023-03-20T06:52:18;99663.17;;;5.84;62.78
64460;BME280;50828;53.756;21.140;2023-03-20T06:57:35;99662.91;;;6.07;62.94
64460;BME280;50828;53.756;21.140;2023-03-20T07:02:42;99655.05;;;6.30;62.97
64460;BME280;50828;53.756;21.140;2023-03-20T07:07:51;99650.48;;;6.54;62.80
64460;BME280;50828;53.756;21.140;2023-03-20T07:12:59;99652.70;;;6.79;62.71
64460;BME280;50828;53.756;21.140;2023-03-20T07:18:07;99650.36;;;7.02;62.69
64460;BME280;50828;53.756;21.140;2023-03-20T07:23:15;99648.13;;;7.27;62.71
64460;BME280;50828;53.756;21.140;2023-03-20T07:28:23;99649.38;;;7.52;62.55
64460;BME280;50828;53.756;21.140;2023-03-20T07:33:40;99641.91;;;7.80;62.24
64460;BME280;50828;53.756;21.140;2023-03-20T07:38:47;99638.40;;;8.13;62.40
64460;BME280;50828;53.756;21.140;2023-03-20T07:43:56;99633.21;;;8.48;62.14
64460;BME280;50828;53.756;21.140;2023-03-20T07:49:20;99631.17;;;8.87;61.71
64460;BME280;50828;53.756;21.140;2023-03-20T07:54:28;99636.09;;;9.29;61.10
64460;BME280;50828;53.756;21.140;2023-03-20T07:59:35;99639.30;;;9.73;61.02
64460;BME280;50828;53.756;21.140;2023-03-20T08:04:43;99638.16;;;10.18;60.12
64460;BME280;50828;53.756;21.140;2023-03-20T08:09:51;99631.15;;;10.66;59.97
64460;BME280;50828;53.756;21.140;2023-03-20T08:14:58;99631.24;;;11.11;59.08
64460;BME280;50828;53.756;21.140;2023-03-20T08:20:08;99627.20;;;11.46;58.57
64460;BME280;50828;53.756;21.140;2023-03-20T08:25:16;99626.39;;;11.78;57.90
64460;BME280;50828;53.756;21.140;2023-03-20T08:30:24;99629.60;;;12.08;56.45
64460;BME280;50828;53.756;21.140;2023-03-20T08:35:32;99628.79;;;12.36;56.02
64460;BME280;50828;53.756;21.140;2023-03-20T08:40:40;99624.34;;;12.62;54.30
64460;BME280;50828;53.756;21.140;2023-03-20T08:45:48;99618.09;;;12.82;53.84
64460;BME280;50828;53.756;21.140;2023-03-20T08:50:56;99617.86;;;12.98;53.43
64460;BME280;50828;53.756;21.140;2023-03-20T08:56:04;99622.73;;;13.12;52.49
64460;BME280;50828;53.756;21.140;2023-03-20T09:01:12;99624.06;;;13.23;51.57
64460;BME280;50828;53.756;21.140;2023-03-20T09:06:20;99627.59;;;13.29;51.71
64460;BME280;50828;53.756;21.140;2023-03-20T09:11:28;99631.21;;;13.30;51.17
64460;BME280;50828;53.756;21.140;2023-03-20T09:16:35;99631.25;;;13.33;51.33
64460;BME280;50828;53.756;21.140;2023-03-20T09:21:44;99631.63;;;13.33;51.23
64460;BME280;50828;53.756;21.140;2023-03-20T09:26:52;99632.08;;;13.31;51.15
64460;BME280;50828;53.756;21.140;2023-03-20T09:32:00;99632.27;;;13.27;50.79
64460;BME280;50828;53.756;21.140;2023-03-20T09:37:08;99631.71;;;13.25;51.04
64460;BME280;50828;53.756;21.140;2023-03-20T09:42:24;99630.89;;;13.23;50.59
64460;BME280;50828;53.756;21.140;2023-03-20T09:47:37;99632.67;;;13.23;50.84
64460;BME280;50828;53.756;21.140;2023-03-20T09:52:54;99632.70;;;13.26;50.34
64460;BME280;50828;53.756;21.140;2023-03-20T09:58:08;99633.17;;;13.27;50.20
64460;BME280;50828;53.756;21.140;2023-03-20T10:03:23;99618.95;;;13.19;50.42
64460;BME280;50828;53.756;21.140;2023-03-20T10:08:36;99629.09;;;13.27;50.30
64460;BME280;50828;53.756;21.140;2023-03-20T10:13:58;99628.46;;;13.26;50.67
64460;BME280;50828;53.756;21.140;2023-03-20T10:19:19;99632.48;;;13.23;50.61
64460;BME280;50828;53.756;21.140;2023-03-20T10:24:31;99632.85;;;13.24;50.98
64460;BME280;50828;53.756;21.140;2023-03-20T10:29:48;99627.06;;;13.25;50.50
64460;BME280;50828;53.756;21.140;2023-03-20T10:40:29;99620.67;;;13.26;50.12
64460;BME280;50828;53.756;21.140;2023-03-20T10:45:44;99620.77;;;13.25;49.99
64460;BME280;50828;53.756;21.140;2023-03-20T10:50:55;99624.21;;;13.20;50.72
64460;BME280;50828;53.756;21.140;2023-03-20T10:56:06;99619.94;;;13.14;50.97
64460;BME280;50828;53.756;21.140;2023-03-20T11:01:16;99614.41;;;13.06;51.94
64460;BME280;50828;53.756;21.140;2023-03-20T11:06:27;99615.73;;;12.96;52.45
64460;BME280;50828;53.756;21.140;2023-03-20T11:11:37;99615.09;;;12.85;52.65
64460;BME280;50828;53.756;21.140;2023-03-20T11:16:53;99610.42;;;12.77;53.44
64460;BME280;50828;53.756;21.140;2023-03-20T11:21:59;99605.20;;;12.73;53.63
64460;BME280;50828;53.756;21.140;2023-03-20T11:27:11;99600.31;;;12.68;53.77
64460;BME280;50828;53.756;21.140;2023-03-20T11:32:25;99598.05;;;12.64;53.48
64460;BME280;50828;53.756;21.140;2023-03-20T11:37:35;99597.42;;;12.60;53.58
64460;BME280;50828;53.756;21.140;2023-03-20T11:43:04;99596.46;;;12.58;54.04
64460;BME280;50828;53.756;21.140;2023-03-20T11:48:19;99593.30;;;12.55;54.05
64460;BME280;50828;53.756;21.140;2023-03-20T11:53:30;99590.09;;;12.53;54.59
64460;BME280;50828;53.756;21.140;2023-03-20T11:58:48;99593.10;;;12.49;54.36
64460;BME280;50828;53.756;21.140;2023-03-20T12:04:03;99592.79;;;12.45;54.68
64460;BME280;50828;53.756;21.140;2023-03-20T12:09:27;99590.20;;;12.41;54.50
64460;BME280;50828;53.756;21.140;2023-03-20T12:14:41;99584.80;;;12.37;54.80
64460;BME280;50828;53.756;21.140;2023-03-20T12:19:51;99578.73;;;12.31;55.30
64460;BME280;50828;53.756;21.140;2023-03-20T12:25:06;99574.65;;;12.28;55.43
64460;BME280;50828;53.756;21.140;2023-03-20T12:30:21;99571.10;;;12.26;56.05
64460;BME280;50828;53.756;21.140;2023-03-20T12:35:37;99571.29;;;12.22;57.02
64460;BME280;50828;53.756;21.140;2023-03-20T12:40:52;99566.15;;;12.16;57.26
64460;BME280;50828;53.756;21.140;2023-03-20T12:46:06;99564.21;;;12.10;58.12
64460;BME280;50828;53.756;21.140;2023-03-20T12:51:18;99567.34;;;12.07;58.13
64460;BME280;50828;53.756;21.140;2023-03-20T12:56:41;99563.73;;;12.06;58.76
64460;BME280;50828;53.756;21.140;2023-03-20T13:01:58;99561.80;;;12.09;58.85
64460;BME280;50828;53.756;21.140;2023-03-20T13:07:18;99559.18;;;12.12;59.50
64460;BME280;50828;53.756;21.140;2023-03-20T13:12:38;99559.52;;;12.15;59.72
64460;BME280;50828;53.756;21.140;2023-03-20T13:17:51;99555.05;;;12.19;59.77
64460;BME280;50828;53.756;21.140;2023-03-20T13:23:11;99553.09;;;12.23;59.90
64460;BME280;50828;53.756;21.140;2023-03-20T13:28:29;99547.52;;;12.27;60.07
64460;BME280;50828;53.756;21.140;2023-03-20T13:33:49;99546.65;;;12.31;60.48
64460;BME280;50828;53.756;21.140;2023-03-20T13:39:02;99543.30;;;12.31;60.93
64460;BME280;50828;53.756;21.140;2023-03-20T13:44:12;99539.71;;;12.28;61.25
64460;BME280;50828;53.756;21.140;2023-03-20T13:49:31;99537.80;;;12.25;61.63
64460;BME280;50828;53.756;21.140;2023-03-20T13:54:57;99532.79;;;12.20;61.93
64460;BME280;50828;53.756;21.140;2023-03-20T14:00:20;99517.71;;;12.05;61.94
64460;BME280;50828;53.756;21.140;2023-03-20T14:05:37;99523.53;;;12.05;62.32
64460;BME280;50828;53.756;21.140;2023-03-20T14:10:45;99515.40;;;11.96;62.59
64460;BME280;50828;53.756;21.140;2023-03-20T14:15:56;99517.65;;;11.90;63.06
64460;BME280;50828;53.756;21.140;2023-03-20T14:21:13;99513.73;;;11.81;63.45
64460;BME280;50828;53.756;21.140;2023-03-20T14:26:25;99512.91;;;11.76;63.31
64460;BME280;50828;53.756;21.140;2023-03-20T14:31:33;99508.23;;;11.71;64.07
64460;BME280;50828;53.756;21.140;2023-03-20T14:42:25;99507.88;;;11.65;64.60
64460;BME280;50828;53.756;21.140;2023-03-20T14:47:44;99503.73;;;11.64;64.97
64460;BME280;50828;53.756;21.140;2023-03-20T14:53:05;99500.46;;;11.65;64.80
64460;BME280;50828;53.756;21.140;2023-03-20T14:58:52;99501.77;;;11.67;64.98
64460;BME280;50828;53.756;21.140;2023-03-20T15:04:04;99507.64;;;11.69;65.65
64460;BME280;50828;53.756;21.140;2023-03-20T15:09:13;99503.60;;;11.72;65.28
64460;BME280;50828;53.756;21.140;2023-03-20T15:14:24;99507.50;;;11.75;65.68
64460;BME280;50828;53.756;21.140;2023-03-20T15:19:33;99515.08;;;11.75;65.54
64460;BME280;50828;53.756;21.140;2023-03-20T15:24:52;99512.27;;;11.75;65.80
64460;BME280;50828;53.756;21.140;2023-03-20T15:30:01;99511.83;;;11.77;66.07
64460;BME280;50828;53.756;21.140;2023-03-20T15:35:13;99507.39;;;11.77;65.88
64460;BME280;50828;53.756;21.140;2023-03-20T15:40:26;99500.61;;;11.79;66.32
64460;BME280;50828;53.756;21.140;2023-03-20T15:45:48;99493.58;;;11.78;65.90
64460;BME280;50828;53.756;21.140;2023-03-20T15:51:01;99501.48;;;11.85;66.05
64460;BME280;50828;53.756;21.140;2023-03-20T15:56:13;99505.98;;;11.90;66.29
64460;BME280;50828;53.756;21.140;2023-03-20T16:01:24;99510.82;;;11.92;66.44
64460;BME280;50828;53.756;21.140;2023-03-20T16:06:32;99508.13;;;11.93;66.26
64460;BME280;50828;53.756;21.140;2023-03-20T16:11:41;99506.04;;;11.93;66.40
64460;BME280;50828;53.756;21.140;2023-03-20T16:16:52;99505.01;;;11.92;65.96
64460;BME280;50828;53.756;21.140;2023-03-20T16:22:02;99508.63;;;11.90;66.03
64460;BME280;50828;53.756;21.140;2023-03-20T16:27:16;99516.63;;;11.85;66.03
64460;BME280;50828;53.756;21.140;2023-03-20T16:32:35;99522.52;;;11.81;66.27
64460;BME280;50828;53.756;21.140;2023-03-20T16:37:50;99530.54;;;11.76;65.97
64460;BME280;50828;53.756;21.140;2023-03-20T16:43:05;99533.59;;;11.72;65.89
64460;BME280;50828;53.756;21.140;2023-03-20T16:48:30;99541.89;;;11.69;65.99
64460;BME280;50828;53.756;21.140;2023-03-20T16:53:43;99542.65;;;11.65;65.93
64460;BME280;50828;53.756;21.140;2023-03-20T16:58:51;99551.66;;;11.61;65.69
64460;BME280;50828;53.756;21.140;2023-03-20T17:04:16;99562.83;;;11.56;65.73
64460;BME280;50828;53.756;21.140;2023-03-20T17:09:26;99573.48;;;11.51;65.47
64460;BME280;50828;53.756;21.140;2023-03-20T17:14:35;99578.70;;;11.46;65.73
64460;BME280;50828;53.756;21.140;2023-03-20T17:19:43;99571.70;;;11.42;65.70
64460;BME280;50828;53.756;21.140;2023-03-20T17:24:53;99568.95;;;11.34;65.81
64460;BME280;50828;53.756;21.140;2023-03-20T17:30:00;99573.98;;;11.25;65.59
64460;BME280;50828;53.756;21.140;2023-03-20T17:35:10;99577.29;;;11.15;65.86
64460;BME280;50828;53.756;21.140;2023-03-20T17:40:21;99584.96;;;11.06;65.79
64460;BME280;50828;53.756;21.140;2023-03-20T17:45:30;99572.24;;;10.97;66.40
64460;BME280;50828;53.756;21.140;2023-03-20T17:50:37;99561.77;;;10.88;66.74
64460;BME280;50828;53.756;21.140;2023-03-20T17:55:46;99544.89;;;10.80;66.77
64460;BME280;50828;53.756;21.140;2023-03-20T18:00:54;99550.83;;;10.74;66.80
64460;BME280;50828;53.756;21.140;2023-03-20T18:06:02;99566.71;;;10.66;67.19
64460;BME280;50828;53.756;21.140;2023-03-20T18:11:10;99569.52;;;10.59;67.30
64460;BME280;50828;53.756;21.140;2023-03-20T18:16:19;99566.30;;;10.53;67.55
64460;BME280;50828;53.756;21.140;2023-03-20T18:21:27;99567.67;;;10.46;67.52
64460;BME280;50828;53.756;21.140;2023-03-20T18:26:35;99579.88;;;10.41;67.81
64460;BME280;50828;53.756;21.140;2023-03-20T18:31:42;99588.98;;;10.35;67.84
64460;BME280;50828;53.756;21.140;2023-03-20T18:36:51;99592.06;;;10.29;67.90
64460;BME280;50828;53.756;21.140;2023-03-20T18:41:59;99596.77;;;10.22;67.94
64460;BME280;50828;53.756;21.140;2023-03-20T18:47:07;99605.64;;;10.17;67.83
64460;BME280;50828;53.756;21.140;2023-03-20T18:52:16;99613.48;;;10.11;68.00
64460;BME280;50828;53.756;21.140;2023-03-20T18:57:23;99614.77;;;10.02;67.89
64460;BME280;50828;53.756;21.140;2023-03-20T19:02:31;99618.58;;;9.92;67.93
64460;BME280;50828;53.756;21.140;2023-03-20T19:07:39;99626.85;;;9.80;67.67
64460;BME280;50828;53.756;21.140;2023-03-20T19:12:47;99629.42;;;9.69;67.57
64460;BME280;50828;53.756;21.140;2023-03-20T19:17:55;99625.71;;;9.58;68.05
64460;BME280;50828;53.756;21.140;2023-03-20T19:23:04;99627.20;;;9.48;67.72
64460;BME280;50828;53.756;21.140;2023-03-20T19:28:19;99621.63;;;9.34;68.06
64460;BME280;50828;53.756;21.140;2023-03-20T19:33:43;99620.20;;;9.26;68.01
64460;BME280;50828;53.756;21.140;2023-03-20T19:38:51;99613.53;;;9.18;68.42
64460;BME280;50828;53.756;21.140;2023-03-20T19:43:59;99608.06;;;9.10;68.36
64460;BME280;50828;53.756;21.140;2023-03-20T19:49:09;99602.94;;;9.03;68.69
64460;BME280;50828;53.756;21.140;2023-03-20T19:54:22;99597.05;;;8.96;68.85
64460;BME280;50828;53.756;21.140;2023-03-20T19:59:31;99598.30;;;8.91;68.68
64460;BME280;50828;53.756;21.140;2023-03-20T20:04:39;99602.60;;;8.85;69.13
64460;BME280;50828;53.756;21.140;2023-03-20T20:09:46;99599.14;;;8.80;68.93
64460;BME280;50828;53.756;21.140;2023-03-20T20:14:54;99599.75;;;8.73;68.90
64460;BME280;50828;53.756;21.140;2023-03-20T20:20:02;99598.08;;;8.67;69.21
64460;BME280;50828;53.756;21.140;2023-03-20T20:25:12;99595.14;;;8.61;69.01
64460;BME280;50828;53.756;21.140;2023-03-20T20:30:20;99596.43;;;8.56;69.11
64460;BME280;50828;53.756;21.140;2023-03-20T20:35:28;99589.67;;;8.49;69.15
64460;BME280;50828;53.756;21.140;2023-03-20T20:40:56;99590.96;;;8.42;69.33
64460;BME280;50828;53.756;21.140;2023-03-20T20:46:03;99594.70;;;8.37;69.22
64460;BME280;50828;53.756;21.140;2023-03-20T20:51:11;99591.64;;;8.29;69.42
64460;BME280;50828;53.756;21.140;2023-03-20T20:56:19;99596.05;;;8.24;69.33
64460;BME280;50828;53.756;21.140;2023-03-20T21:01:27;99594.69;;;8.18;69.68
64460;BME280;50828;53.756;21.140;2023-03-20T21:06:35;99590.34;;;8.13;69.74
64460;BME280;50828;53.756;21.140;2023-03-20T21:12:02;99593.85;;;8.08;70.08
64460;BME280;50828;53.756;21.140;2023-03-20T21:17:11;99593.14;;;8.04;69.87
64460;BME280;50828;53.756;21.140;2023-03-20T21:22:19;99592.05;;;8.00;70.10
64460;BME280;50828;53.756;21.140;2023-03-20T21:27:28;99593.94;;;7.97;69.97
64460;BME280;50828;53.756;21.140;2023-03-20T21:32:38;99586.67;;;7.94;70.08
64460;BME280;50828;53.756;21.140;2023-03-20T21:37:46;99593.27;;;7.91;70.01
64460;BME280;50828;53.756;21.140;2023-03-20T21:43:15;99583.60;;;7.87;70.09
64460;BME280;50828;53.756;21.140;2023-03-20T21:48:24;99579.98;;;7.85;70.23
64460;BME280;50828;53.756;21.140;2023-03-20T21:53:53;99576.78;;;7.82;70.39
64460;BME280;50828;53.756;21.140;2023-03-20T21:59:22;99572.48;;;7.79;70.43
64460;BME280;50828;53.756;21.140;2023-03-20T22:04:50;99576.08;;;7.77;70.36
64460;BME280;50828;53.756;21.140;2023-03-20T22:10:19;99577.02;;;7.75;70.57
64460;BME280;50828;53.756;21.140;2023-03-20T22:15:48;99579.16;;;7.74;70.44
64460;BME280;50828;53.756;21.140;2023-03-20T22:21:17;99579.52;;;7.74;70.49
64460;BME280;50828;53.756;21.140;2023-03-20T22:26:45;99577.92;;;7.75;70.47
64460;BME280;50828;53.756;21.140;2023-03-20T22:32:14;99573.46;;;7.77;70.46
64460;BME280;50828;53.756;21.140;2023-03-20T22:37:43;99571.47;;;7.79;70.36
64460;BME280;50828;53.756;21.140;2023-03-20T22:43:12;99572.97;;;7.81;70.46
64460;BME280;50828;53.756;21.140;2023-03-20T22:48:41;99573.42;;;7.82;70.53
64460;BME280;50828;53.756;21.140;2023-03-20T22:53:50;99568.11;;;7.84;70.39
64460;BME280;50828;53.756;21.140;2023-03-20T22:58:59;99572.58;;;7.86;70.20
64460;BME280;50828;53.756;21.140;2023-03-20T23:04:07;99566.91;;;7.88;70.27
64460;BME280;50828;53.756;21.140;2023-03-20T23:09:16;99570.89;;;7.90;70.53
64460;BME280;50828;53.756;21.140;2023-03-20T23:14:23;99557.08;;;7.84;70.37
64460;BME280;50828;53.756;21.140;2023-03-20T23:19:35;99566.08;;;7.92;70.43
64460;BME280;50828;53.756;21.140;2023-03-20T23:24:55;99565.86;;;7.93;70.40
64460;BME280;50828;53.756;21.140;2023-03-20T23:30:16;99561.85;;;7.92;70.51
64460;BME280;50828;53.756;21.140;2023-03-20T23:35:26;99564.44;;;7.93;70.57
64460;BME280;50828;53.756;21.140;2023-03-20T23:40:33;99565.30;;;7.94;70.63
64460;BME280;50828;53.756;21.140;2023-03-20T23:45:41;99563.02;;;7.94;70.64
64460;BME280;50828;53.756;21.140;2023-03-20T23:50:50;99556.34;;;7.94;70.76
64460;BME280;50828;53.756;21.140;2023-03-20T23:55:58;99557.73;;;7.94;70.84
